sensor_id;sensor_type;location;lat;lon;timestamp;P1;durP1;ratioP1;P2;durP2;ratioP2
85799;SDS011;76245;47.062;15.440;2024-02-21T00:01:21;13.77;;;6.40;;
85799;SDS011;76245;47.062;15.440;2024-02-21T00:03:47;14.82;;;6.25;;
85799;SDS011;76245;47.062;15.440;2024-02-21T00:06:12;13.77;;;5.35;;
85799;SDS011;76245;47.062;15.440;2024-02-21T00:08:38;12.65;;;6.55;;
85799;SDS011;76245;47.062;15.440;2024-02-21T00:11:03;11.45;;;5.72;;
85799;SDS011;76245;47.062;15.440;2024-02-21T00:13:29;12.50;;;6.40;;
85799;SDS011;76245;47.062;15.440;2024-02-21T00:15:54;9.60;;;6.15;;
85799;SDS011;76245;47.062;15.440;2024-02-21T00:18:20;13.43;;;7.10;;
85799;SDS011;76245;47.062;15.440;2024-02-21T00:20:46;12.38;;;7.03;;
85799;SDS011;76245;47.062;15.440;2024-02-21T00:23:11;12.55;;;6.95;;
85799;SDS011;76245;47.062;15.440;2024-02-21T00:25:37;12.88;;;6.55;;
85799;SDS011;76245;47.062;15.440;2024-02-21T00:28:02;14.55;;;6.85;;
85799;SDS011;76245;47.062;15.440;2024-02-21T00:30:28;12.88;;;6.50;;
85799;SDS011;76245;47.062;15.440;2024-02-21T00:32:54;11.68;;;6.25;;
85799;SDS011;76245;47.062;15.440;2024-02-21T00:35:19;8.73;;;5.35;;
85799;SDS011;76245;47.062;15.440;2024-02-21T00:37:45;12.88;;;6.10;;
85799;SDS011;76245;47.062;15.440;2024-02-21T00:40:10;12.38;;;7.03;;
85799;SDS011;76245;47.062;15.440;2024-02-21T00:42:36;9.70;;;6.07;;
85799;SDS011;76245;47.062;15.440;2024-02-21T00:45:01;12.52;;;6.03;;
85799;SDS011;76245;47.062;15.440;2024-02-21T00:47:27;11.52;;;5.82;;
85799;SDS011;76245;47.062;15.440;2024-02-21T00:49:53;13.80;;;6.70;;
85799;SDS011;76245;47.062;15.440;2024-02-21T00:52:18;17.63;;;7.43;;
85799;SDS011;76245;47.062;15.440;2024-02-21T00:54:43;10.88;;;7.22;;
85799;SDS011;76245;47.062;15.440;2024-02-21T00:57:10;13.10;;;6.78;;
85799;SDS011;76245;47.062;15.440;2024-02-21T00:59:35;11.00;;;6.00;;
85799;SDS011;76245;47.062;15.440;2024-02-21T01:02:01;12.07;;;6.25;;
85799;SDS011;76245;47.062;15.440;2024-02-21T01:04:26;10.15;;;5.80;;
85799;SDS011;76245;47.062;15.440;2024-02-21T01:06:51;11.45;;;4.93;;
85799;SDS011;76245;47.062;15.440;2024-02-21T01:09:18;10.45;;;5.45;;
85799;SDS011;76245;47.062;15.440;2024-02-21T01:11:43;12.60;;;5.80;;
85799;SDS011;76245;47.062;15.440;2024-02-21T01:14:08;11.93;;;5.35;;
85799;SDS011;76245;47.062;15.440;2024-02-21T01:16:34;11.38;;;5.57;;
85799;SDS011;76245;47.062;15.440;2024-02-21T01:18:59;12.85;;;6.43;;
85799;SDS011;76245;47.062;15.440;2024-02-21T01:21:25;9.77;;;6.03;;
85799;SDS011;76245;47.062;15.440;2024-02-21T01:23:50;8.50;;;5.07;;
85799;SDS011;76245;47.062;15.440;2024-02-21T01:26:16;10.18;;;5.63;;
85799;SDS011;76245;47.062;15.440;2024-02-21T01:28:43;10.20;;;5.75;;
85799;SDS011;76245;47.062;15.440;2024-02-21T01:31:08;7.43;;;4.97;;
85799;SDS011;76245;47.062;15.440;2024-02-21T01:33:34;9.73;;;5.47;;
85799;SDS011;76245;47.062;15.440;2024-02-21T01:36:04;10.68;;;5.88;;
85799;SDS011;76245;47.062;15.440;2024-02-21T01:38:31;8.52;;;4.25;;
85799;SDS011;76245;47.062;15.440;2024-02-21T01:40:57;8.88;;;5.07;;
85799;SDS011;76245;47.062;15.440;2024-02-21T01:43:23;11.20;;;5.60;;
85799;SDS011;76245;47.062;15.440;2024-02-21T01:45:49;9.80;;;5.40;;
85799;SDS011;76245;47.062;15.440;2024-02-21T01:48:19;9.25;;;5.68;;
85799;SDS011;76245;47.062;15.440;2024-02-21T01:50:50;9.45;;;4.80;;
85799;SDS011;76245;47.062;15.440;2024-02-21T01:53:17;10.05;;;4.22;;
85799;SDS011;76245;47.062;15.440;2024-02-21T01:56:03;8.75;;;4.28;;
85799;SDS011;76245;47.062;15.440;2024-02-21T01:58:30;9.18;;;5.13;;
85799;SDS011;76245;47.062;15.440;2024-02-21T02:00:57;10.73;;;4.95;;
85799;SDS011;76245;47.062;15.440;2024-02-21T02:03:23;8.27;;;4.18;;
85799;SDS011;76245;47.062;15.440;2024-02-21T02:05:50;8.43;;;4.00;;
85799;SDS011;76245;47.062;15.440;2024-02-21T02:08:17;9.07;;;4.20;;
85799;SDS011;76245;47.062;15.440;2024-02-21T02:10:43;7.68;;;3.47;;
85799;SDS011;76245;47.062;15.440;2024-02-21T02:13:09;5.35;;;3.60;;
85799;SDS011;76245;47.062;15.440;2024-02-21T02:15:42;5.45;;;3.45;;
85799;SDS011;76245;47.062;15.440;2024-02-21T02:18:09;5.93;;;3.30;;
85799;SDS011;76245;47.062;15.440;2024-02-21T02:20:35;5.57;;;3.33;;
85799;SDS011;76245;47.062;15.440;2024-02-21T02:23:07;7.22;;;3.50;;
85799;SDS011;76245;47.062;15.440;2024-02-21T02:25:35;9.02;;;5.03;;
85799;SDS011;76245;47.062;15.440;2024-02-21T02:28:02;10.48;;;5.40;;
85799;SDS011;76245;47.062;15.440;2024-02-21T02:30:34;9.75;;;4.82;;
85799;SDS011;76245;47.062;15.440;2024-02-21T02:33:04;7.05;;;4.25;;
85799;SDS011;76245;47.062;15.440;2024-02-21T02:35:30;10.48;;;5.15;;
85799;SDS011;76245;47.062;15.440;2024-02-21T02:37:56;14.20;;;4.80;;
85799;SDS011;76245;47.062;15.440;2024-02-21T02:40:21;8.63;;;5.57;;
85799;SDS011;76245;47.062;15.440;2024-02-21T02:42:47;9.35;;;4.78;;
85799;SDS011;76245;47.062;15.440;2024-02-21T02:45:14;12.23;;;5.43;;
85799;SDS011;76245;47.062;15.440;2024-02-21T02:47:40;10.93;;;5.32;;
85799;SDS011;76245;47.062;15.440;2024-02-21T02:50:06;9.68;;;4.63;;
85799;SDS011;76245;47.062;15.440;2024-02-21T02:52:33;8.20;;;4.82;;
85799;SDS011;76245;47.062;15.440;2024-02-21T02:54:58;8.20;;;4.60;;
85799;SDS011;76245;47.062;15.440;2024-02-21T02:57:24;7.50;;;4.30;;
85799;SDS011;76245;47.062;15.440;2024-02-21T02:59:50;7.55;;;4.43;;
85799;SDS011;76245;47.062;15.440;2024-02-21T03:02:16;8.15;;;3.97;;
85799;SDS011;76245;47.062;15.440;2024-02-21T03:04:42;5.80;;;3.60;;
85799;SDS011;76245;47.062;15.440;2024-02-21T03:07:09;5.35;;;3.33;;
85799;SDS011;76245;47.062;15.440;2024-02-21T03:09:36;9.70;;;4.15;;
85799;SDS011;76245;47.062;15.440;2024-02-21T03:12:02;7.38;;;3.80;;
85799;SDS011;76245;47.062;15.440;2024-02-21T03:14:29;6.97;;;3.78;;
85799;SDS011;76245;47.062;15.440;2024-02-21T03:16:55;7.72;;;3.67;;
85799;SDS011;76245;47.062;15.440;2024-02-21T03:19:21;6.78;;;3.90;;
85799;SDS011;76245;47.062;15.440;2024-02-21T03:21:46;6.18;;;3.72;;
85799;SDS011;76245;47.062;15.440;2024-02-21T03:24:15;8.48;;;4.20;;
85799;SDS011;76245;47.062;15.440;2024-02-21T03:26:41;7.18;;;3.80;;
85799;SDS011;76245;47.062;15.440;2024-02-21T03:29:07;6.72;;;4.03;;
85799;SDS011;76245;47.062;15.440;2024-02-21T03:31:33;4.97;;;3.42;;
85799;SDS011;76245;47.062;15.440;2024-02-21T03:33:59;8.32;;;3.88;;
85799;SDS011;76245;47.062;15.440;2024-02-21T03:36:25;5.68;;;3.10;;
85799;SDS011;76245;47.062;15.440;2024-02-21T03:38:50;5.13;;;3.22;;
85799;SDS011;76245;47.062;15.440;2024-02-21T03:41:16;6.18;;;3.67;;
85799;SDS011;76245;47.062;15.440;2024-02-21T03:43:41;10.07;;;3.65;;
85799;SDS011;76245;47.062;15.440;2024-02-21T03:46:07;8.02;;;3.42;;
85799;SDS011;76245;47.062;15.440;2024-02-21T03:48:32;4.22;;;2.97;;
85799;SDS011;76245;47.062;15.440;2024-02-21T03:50:58;6.28;;;3.63;;
85799;SDS011;76245;47.062;15.440;2024-02-21T03:53:24;7.22;;;3.80;;
85799;SDS011;76245;47.062;15.440;2024-02-21T03:55:49;8.10;;;3.85;;
85799;SDS011;76245;47.062;15.440;2024-02-21T03:58:15;7.80;;;3.40;;
85799;SDS011;76245;47.062;15.440;2024-02-21T04:00:40;7.72;;;3.72;;
85799;SDS011;76245;47.062;15.440;2024-02-21T04:03:06;6.55;;;3.55;;
85799;SDS011;76245;47.062;15.440;2024-02-21T04:05:32;6.88;;;3.55;;
85799;SDS011;76245;47.062;15.440;2024-02-21T04:07:57;8.55;;;3.42;;
85799;SDS011;76245;47.062;15.440;2024-02-21T04:10:23;6.90;;;3.20;;
85799;SDS011;76245;47.062;15.440;2024-02-21T04:12:49;6.40;;;3.15;;
85799;SDS011;76245;47.062;15.440;2024-02-21T04:15:15;4.72;;;3.13;;
85799;SDS011;76245;47.062;15.440;2024-02-21T04:17:42;5.97;;;2.95;;
85799;SDS011;76245;47.062;15.440;2024-02-21T04:20:13;5.03;;;2.88;;
85799;SDS011;76245;47.062;15.440;2024-02-21T04:22:40;5.05;;;2.80;;
85799;SDS011;76245;47.062;15.440;2024-02-21T04:25:06;4.82;;;2.92;;
85799;SDS011;76245;47.062;15.440;2024-02-21T04:27:32;6.75;;;2.95;;
85799;SDS011;76245;47.062;15.440;2024-02-21T04:29:57;6.50;;;3.97;;
85799;SDS011;76245;47.062;15.440;2024-02-21T04:32:23;7.57;;;3.17;;
85799;SDS011;76245;47.062;15.440;2024-02-21T04:34:48;5.15;;;2.85;;
85799;SDS011;76245;47.062;15.440;2024-02-21T04:37:14;5.55;;;2.90;;
85799;SDS011;76245;47.062;15.440;2024-02-21T04:39:39;11.32;;;3.45;;
85799;SDS011;76245;47.062;15.440;2024-02-21T04:42:05;5.80;;;3.60;;
85799;SDS011;76245;47.062;15.440;2024-02-21T04:44:31;6.88;;;3.67;;
85799;SDS011;76245;47.062;15.440;2024-02-21T04:46:57;5.80;;;3.42;;
85799;SDS011;76245;47.062;15.440;2024-02-21T04:49:23;5.20;;;3.25;;
85799;SDS011;76245;47.062;15.440;2024-02-21T04:51:48;6.93;;;3.15;;
85799;SDS011;76245;47.062;15.440;2024-02-21T04:54:14;5.85;;;3.15;;
85799;SDS011;76245;47.062;15.440;2024-02-21T04:56:39;7.50;;;3.20;;
85799;SDS011;76245;47.062;15.440;2024-02-21T04:59:05;9.32;;;3.40;;
85799;SDS011;76245;47.062;15.440;2024-02-21T05:01:30;7.32;;;3.60;;
85799;SDS011;76245;47.062;15.440;2024-02-21T05:03:56;4.95;;;3.65;;
85799;SDS011;76245;47.062;15.440;2024-02-21T05:06:21;5.03;;;3.08;;
85799;SDS011;76245;47.062;15.440;2024-02-21T05:08:47;6.38;;;3.10;;
85799;SDS011;76245;47.062;15.440;2024-02-21T05:11:12;4.72;;;2.83;;
85799;SDS011;76245;47.062;15.440;2024-02-21T05:13:38;7.82;;;3.78;;
85799;SDS011;76245;47.062;15.440;2024-02-21T05:16:03;10.45;;;3.67;;
85799;SDS011;76245;47.062;15.440;2024-02-21T05:18:30;6.55;;;3.40;;
85799;SDS011;76245;47.062;15.440;2024-02-21T05:20:55;9.48;;;4.05;;
85799;SDS011;76245;47.062;15.440;2024-02-21T05:23:20;6.65;;;3.17;;
85799;SDS011;76245;47.062;15.440;2024-02-21T05:25:46;6.32;;;4.00;;
85799;SDS011;76245;47.062;15.440;2024-02-21T05:28:11;6.18;;;3.53;;
85799;SDS011;76245;47.062;15.440;2024-02-21T05:30:37;7.47;;;3.28;;
85799;SDS011;76245;47.062;15.440;2024-02-21T05:33:05;8.23;;;2.78;;
85799;SDS011;76245;47.062;15.440;2024-02-21T05:35:32;7.70;;;3.05;;
85799;SDS011;76245;47.062;15.440;2024-02-21T05:37:57;5.28;;;3.13;;
85799;SDS011;76245;47.062;15.440;2024-02-21T05:40:24;4.82;;;3.13;;
85799;SDS011;76245;47.062;15.440;2024-02-21T05:42:50;8.85;;;4.00;;
85799;SDS011;76245;47.062;15.440;2024-02-21T05:45:17;7.45;;;3.95;;
85799;SDS011;76245;47.062;15.440;2024-02-21T05:47:43;10.48;;;4.28;;
85799;SDS011;76245;47.062;15.440;2024-02-21T05:50:09;10.15;;;3.80;;
85799;SDS011;76245;47.062;15.440;2024-02-21T05:52:35;6.90;;;3.58;;
85799;SDS011;76245;47.062;15.440;2024-02-21T05:55:01;7.88;;;4.05;;
85799;SDS011;76245;47.062;15.440;2024-02-21T05:57:27;8.93;;;4.47;;
85799;SDS011;76245;47.062;15.440;2024-02-21T05:59:52;11.43;;;3.58;;
85799;SDS011;76245;47.062;15.440;2024-02-21T06:02:17;8.60;;;3.85;;
85799;SDS011;76245;47.062;15.440;2024-02-21T06:04:43;9.68;;;4.07;;
85799;SDS011;76245;47.062;15.440;2024-02-21T06:07:09;10.80;;;3.67;;
85799;SDS011;76245;47.062;15.440;2024-02-21T06:09:35;14.35;;;4.78;;
85799;SDS011;76245;47.062;15.440;2024-02-21T06:12:00;9.52;;;3.67;;
85799;SDS011;76245;47.062;15.440;2024-02-21T06:14:26;8.57;;;3.90;;
85799;SDS011;76245;47.062;15.440;2024-02-21T06:16:51;12.77;;;3.97;;
85799;SDS011;76245;47.062;15.440;2024-02-21T06:19:17;7.68;;;3.65;;
85799;SDS011;76245;47.062;15.440;2024-02-21T06:21:42;8.70;;;3.72;;
85799;SDS011;76245;47.062;15.440;2024-02-21T06:24:08;10.90;;;4.40;;
85799;SDS011;76245;47.062;15.440;2024-02-21T06:26:33;9.45;;;3.78;;
85799;SDS011;76245;47.062;15.440;2024-02-21T06:28:59;10.30;;;4.50;;
85799;SDS011;76245;47.062;15.440;2024-02-21T06:31:27;11.77;;;4.05;;
85799;SDS011;76245;47.062;15.440;2024-02-21T06:33:53;8.15;;;4.82;;
85799;SDS011;76245;47.062;15.440;2024-02-21T06:36:19;11.18;;;4.32;;
85799;SDS011;76245;47.062;15.440;2024-02-21T06:38:44;9.07;;;3.78;;
85799;SDS011;76245;47.062;15.440;2024-02-21T06:41:16;6.05;;;3.53;;
85799;SDS011;76245;47.062;15.440;2024-02-21T06:43:43;7.30;;;3.30;;
85799;SDS011;76245;47.062;15.440;2024-02-21T06:46:10;9.70;;;4.13;;
85799;SDS011;76245;47.062;15.440;2024-02-21T06:48:35;10.68;;;3.60;;
85799;SDS011;76245;47.062;15.440;2024-02-21T06:51:01;7.65;;;3.65;;
85799;SDS011;76245;47.062;15.440;2024-02-21T06:53:26;7.20;;;3.53;;
85799;SDS011;76245;47.062;15.440;2024-02-21T06:55:51;8.13;;;4.18;;
85799;SDS011;76245;47.062;15.440;2024-02-21T06:58:17;6.50;;;3.75;;
85799;SDS011;76245;47.062;15.440;2024-02-21T07:00:42;10.00;;;3.45;;
85799;SDS011;76245;47.062;15.440;2024-02-21T07:03:10;11.38;;;3.60;;
85799;SDS011;76245;47.062;15.440;2024-02-21T07:05:35;7.80;;;3.85;;
85799;SDS011;76245;47.062;15.440;2024-02-21T07:08:01;9.43;;;3.80;;
85799;SDS011;76245;47.062;15.440;2024-02-21T07:10:26;11.52;;;3.97;;
85799;SDS011;76245;47.062;15.440;2024-02-21T07:12:54;7.72;;;3.80;;
85799;SDS011;76245;47.062;15.440;2024-02-21T07:15:20;7.90;;;3.35;;
85799;SDS011;76245;47.062;15.440;2024-02-21T07:17:45;69.47;;;22.45;;
85799;SDS011;76245;47.062;15.440;2024-02-21T07:20:11;26.73;;;9.00;;
85799;SDS011;76245;47.062;15.440;2024-02-21T07:22:36;16.35;;;5.43;;
85799;SDS011;76245;47.062;15.440;2024-02-21T07:25:02;11.45;;;3.33;;
85799;SDS011;76245;47.062;15.440;2024-02-21T07:27:28;9.55;;;3.00;;
85799;SDS011;76245;47.062;15.440;2024-02-21T07:29:56;6.45;;;3.63;;
85799;SDS011;76245;47.062;15.440;2024-02-21T07:32:22;7.68;;;3.42;;
85799;SDS011;76245;47.062;15.440;2024-02-21T07:34:47;8.65;;;3.05;;
85799;SDS011;76245;47.062;15.440;2024-02-21T07:37:13;4.97;;;2.70;;
85799;SDS011;76245;47.062;15.440;2024-02-21T07:39:38;8.30;;;3.67;;
85799;SDS011;76245;47.062;15.440;2024-02-21T07:42:04;6.20;;;2.92;;
85799;SDS011;76245;47.062;15.440;2024-02-21T07:44:29;5.97;;;2.63;;
85799;SDS011;76245;47.062;15.440;2024-02-21T07:46:56;7.43;;;3.53;;
85799;SDS011;76245;47.062;15.440;2024-02-21T07:49:22;5.03;;;2.97;;
85799;SDS011;76245;47.062;15.440;2024-02-21T07:51:48;7.35;;;3.38;;
85799;SDS011;76245;47.062;15.440;2024-02-21T07:54:13;6.53;;;2.90;;
85799;SDS011;76245;47.062;15.440;2024-02-21T07:56:39;4.93;;;3.05;;
85799;SDS011;76245;47.062;15.440;2024-02-21T07:59:04;6.70;;;2.95;;
85799;SDS011;76245;47.062;15.440;2024-02-21T08:01:30;7.07;;;2.72;;
85799;SDS011;76245;47.062;15.440;2024-02-21T08:03:56;6.15;;;2.72;;
85799;SDS011;76245;47.062;15.440;2024-02-21T08:06:21;7.47;;;3.08;;
85799;SDS011;76245;47.062;15.440;2024-02-21T08:08:47;7.13;;;2.95;;
85799;SDS011;76245;47.062;15.440;2024-02-21T08:11:13;8.38;;;2.92;;
85799;SDS011;76245;47.062;15.440;2024-02-21T08:13:38;10.02;;;2.53;;
85799;SDS011;76245;47.062;15.440;2024-02-21T08:16:04;5.30;;;2.80;;
85799;SDS011;76245;47.062;15.440;2024-02-21T08:18:30;14.23;;;3.53;;
85799;SDS011;76245;47.062;15.440;2024-02-21T08:20:55;13.32;;;3.22;;
85799;SDS011;76245;47.062;15.440;2024-02-21T08:23:22;10.23;;;2.92;;
85799;SDS011;76245;47.062;15.440;2024-02-21T08:25:48;9.43;;;3.45;;
85799;SDS011;76245;47.062;15.440;2024-02-21T08:28:15;4.75;;;2.50;;
85799;SDS011;76245;47.062;15.440;2024-02-21T08:30:40;7.13;;;3.50;;
85799;SDS011;76245;47.062;15.440;2024-02-21T08:33:09;9.95;;;3.60;;
85799;SDS011;76245;47.062;15.440;2024-02-21T08:35:35;10.73;;;3.67;;
85799;SDS011;76245;47.062;15.440;2024-02-21T08:38:00;9.13;;;3.42;;
85799;SDS011;76245;47.062;15.440;2024-02-21T08:40:26;8.52;;;3.42;;
85799;SDS011;76245;47.062;15.440;2024-02-21T08:42:51;10.32;;;3.38;;
85799;SDS011;76245;47.062;15.440;2024-02-21T08:45:16;7.85;;;2.88;;
85799;SDS011;76245;47.062;15.440;2024-02-21T08:47:42;14.23;;;3.35;;
85799;SDS011;76245;47.062;15.440;2024-02-21T08:50:09;8.25;;;3.30;;
85799;SDS011;76245;47.062;15.440;2024-02-21T08:52:36;8.73;;;2.75;;
85799;SDS011;76245;47.062;15.440;2024-02-21T08:55:01;9.85;;;2.95;;
85799;SDS011;76245;47.062;15.440;2024-02-21T08:57:27;7.93;;;3.10;;
85799;SDS011;76245;47.062;15.440;2024-02-21T08:59:52;6.90;;;2.97;;
85799;SDS011;76245;47.062;15.440;2024-02-21T09:02:18;5.90;;;2.65;;
85799;SDS011;76245;47.062;15.440;2024-02-21T09:04:43;7.10;;;3.55;;
85799;SDS011;76245;47.062;15.440;2024-02-21T09:07:09;7.88;;;3.08;;
85799;SDS011;76245;47.062;15.440;2024-02-21T09:09:35;12.95;;;3.30;;
85799;SDS011;76245;47.062;15.440;2024-02-21T09:12:01;6.72;;;3.38;;
85799;SDS011;76245;47.062;15.440;2024-02-21T09:14:34;10.32;;;3.42;;
85799;SDS011;76245;47.062;15.440;2024-02-21T09:17:02;10.38;;;3.42;;
85799;SDS011;76245;47.062;15.440;2024-02-21T09:19:28;6.20;;;3.28;;
85799;SDS011;76245;47.062;15.440;2024-02-21T09:21:54;7.65;;;3.95;;
85799;SDS011;76245;47.062;15.440;2024-02-21T09:24:20;10.27;;;3.75;;
85799;SDS011;76245;47.062;15.440;2024-02-21T09:26:45;8.88;;;3.78;;
85799;SDS011;76245;47.062;15.440;2024-02-21T09:29:11;9.57;;;4.22;;
85799;SDS011;76245;47.062;15.440;2024-02-21T09:31:36;8.88;;;3.10;;
85799;SDS011;76245;47.062;15.440;2024-02-21T09:34:05;7.72;;;3.28;;
85799;SDS011;76245;47.062;15.440;2024-02-21T09:36:30;9.27;;;3.45;;
85799;SDS011;76245;47.062;15.440;2024-02-21T09:38:56;8.40;;;3.22;;
85799;SDS011;76245;47.062;15.440;2024-02-21T09:41:25;6.70;;;2.72;;
85799;SDS011;76245;47.062;15.440;2024-02-21T09:43:52;8.52;;;2.10;;
85799;SDS011;76245;47.062;15.440;2024-02-21T09:46:19;5.10;;;2.65;;
85799;SDS011;76245;47.062;15.440;2024-02-21T09:49:00;6.35;;;2.10;;
85799;SDS011;76245;47.062;15.440;2024-02-21T09:51:47;6.50;;;2.67;;
85799;SDS011;76245;47.062;15.440;2024-02-21T09:54:13;5.18;;;2.47;;
85799;SDS011;76245;47.062;15.440;2024-02-21T09:56:39;4.68;;;2.65;;
85799;SDS011;76245;47.062;15.440;2024-02-21T09:59:06;6.22;;;2.10;;
85799;SDS011;76245;47.062;15.440;2024-02-21T10:01:32;5.43;;;2.42;;
85799;SDS011;76245;47.062;15.440;2024-02-21T10:06:28;4.07;;;1.95;;
85799;SDS011;76245;47.062;15.440;2024-02-21T10:08:53;5.50;;;2.28;;
85799;SDS011;76245;47.062;15.440;2024-02-21T10:11:22;4.65;;;2.72;;
85799;SDS011;76245;47.062;15.440;2024-02-21T10:13:49;7.53;;;2.70;;
85799;SDS011;76245;47.062;15.440;2024-02-21T10:16:15;4.30;;;2.35;;
85799;SDS011;76245;47.062;15.440;2024-02-21T10:18:40;5.80;;;2.10;;
85799;SDS011;76245;47.062;15.440;2024-02-21T10:21:06;8.70;;;2.30;;
85799;SDS011;76245;47.062;15.440;2024-02-21T10:23:46;5.38;;;2.20;;
85799;SDS011;76245;47.062;15.440;2024-02-21T10:26:13;8.15;;;2.50;;
85799;SDS011;76245;47.062;15.440;2024-02-21T10:28:39;5.50;;;2.00;;
85799;SDS011;76245;47.062;15.440;2024-02-21T10:31:09;3.25;;;2.40;;
85799;SDS011;76245;47.062;15.440;2024-02-21T10:33:36;4.65;;;2.28;;
85799;SDS011;76245;47.062;15.440;2024-02-21T10:36:06;4.78;;;2.33;;
85799;SDS011;76245;47.062;15.440;2024-02-21T10:38:38;4.45;;;2.10;;
85799;SDS011;76245;47.062;15.440;2024-02-21T10:41:04;4.78;;;2.20;;
85799;SDS011;76245;47.062;15.440;2024-02-21T10:43:31;8.48;;;2.65;;
85799;SDS011;76245;47.062;15.440;2024-02-21T10:46:03;3.78;;;1.73;;
85799;SDS011;76245;47.062;15.440;2024-02-21T10:48:32;4.82;;;2.20;;
85799;SDS011;76245;47.062;15.440;2024-02-21T10:56:26;4.30;;;2.25;;
85799;SDS011;76245;47.062;15.440;2024-02-21T10:58:54;7.00;;;3.40;;
85799;SDS011;76245;47.062;15.440;2024-02-21T11:01:22;10.32;;;2.83;;
85799;SDS011;76245;47.062;15.440;2024-02-21T11:03:49;4.78;;;2.40;;
85799;SDS011;76245;47.062;15.440;2024-02-21T11:06:16;5.63;;;2.47;;
85799;SDS011;76245;47.062;15.440;2024-02-21T11:08:43;5.28;;;2.15;;
85799;SDS011;76245;47.062;15.440;2024-02-21T11:11:11;5.35;;;2.97;;
85799;SDS011;76245;47.062;15.440;2024-02-21T11:13:42;6.32;;;2.60;;
85799;SDS011;76245;47.062;15.440;2024-02-21T11:16:11;7.32;;;2.65;;
85799;SDS011;76245;47.062;15.440;2024-02-21T11:18:38;5.13;;;2.42;;
85799;SDS011;76245;47.062;15.440;2024-02-21T11:21:04;4.40;;;2.47;;
85799;SDS011;76245;47.062;15.440;2024-02-21T11:23:32;3.88;;;2.00;;
85799;SDS011;76245;47.062;15.440;2024-02-21T11:26:08;4.32;;;2.50;;
85799;SDS011;76245;47.062;15.440;2024-02-21T11:28:34;6.45;;;2.63;;
85799;SDS011;76245;47.062;15.440;2024-02-21T11:31:11;9.32;;;2.63;;
85799;SDS011;76245;47.062;15.440;2024-02-21T11:33:42;3.55;;;1.95;;
85799;SDS011;76245;47.062;15.440;2024-02-21T11:36:09;3.30;;;2.10;;
85799;SDS011;76245;47.062;15.440;2024-02-21T11:38:35;5.10;;;2.67;;
85799;SDS011;76245;47.062;15.440;2024-02-21T11:41:01;4.63;;;1.60;;
85799;SDS011;76245;47.062;15.440;2024-02-21T11:43:27;3.95;;;1.83;;
85799;SDS011;76245;47.062;15.440;2024-02-21T11:45:59;3.65;;;1.95;;
85799;SDS011;76245;47.062;15.440;2024-02-21T11:48:31;5.65;;;2.20;;
85799;SDS011;76245;47.062;15.440;2024-02-21T11:50:57;3.97;;;2.10;;
85799;SDS011;76245;47.062;15.440;2024-02-21T11:53:22;6.80;;;2.15;;
85799;SDS011;76245;47.062;15.440;2024-02-21T11:55:48;4.20;;;1.88;;
85799;SDS011;76245;47.062;15.440;2024-02-21T11:58:15;4.90;;;2.20;;
85799;SDS011;76245;47.062;15.440;2024-02-21T12:00:41;4.68;;;1.92;;
85799;SDS011;76245;47.062;15.440;2024-02-21T12:03:06;5.68;;;1.50;;
85799;SDS011;76245;47.062;15.440;2024-02-21T12:05:32;6.68;;;2.10;;
85799;SDS011;76245;47.062;15.440;2024-02-21T12:07:58;4.82;;;1.60;;
85799;SDS011;76245;47.062;15.440;2024-02-21T12:10:25;6.25;;;2.17;;
85799;SDS011;76245;47.062;15.440;2024-02-21T12:12:51;4.90;;;1.52;;
85799;SDS011;76245;47.062;15.440;2024-02-21T12:15:19;4.13;;;2.00;;
85799;SDS011;76245;47.062;15.440;2024-02-21T12:17:45;5.07;;;1.90;;
85799;SDS011;76245;47.062;15.440;2024-02-21T12:20:11;7.78;;;1.83;;
85799;SDS011;76245;47.062;15.440;2024-02-21T12:22:36;5.13;;;1.50;;
85799;SDS011;76245;47.062;15.440;2024-02-21T12:25:17;5.22;;;1.70;;
85799;SDS011;76245;47.062;15.440;2024-02-21T12:27:44;6.55;;;1.60;;
85799;SDS011;76245;47.062;15.440;2024-02-21T12:30:10;2.05;;;1.25;;
85799;SDS011;76245;47.062;15.440;2024-02-21T12:32:36;3.28;;;1.48;;
85799;SDS011;76245;47.062;15.440;2024-02-21T12:35:02;6.15;;;1.67;;
85799;SDS011;76245;47.062;15.440;2024-02-21T12:37:28;5.20;;;1.70;;
85799;SDS011;76245;47.062;15.440;2024-02-21T12:39:54;4.63;;;1.77;;
85799;SDS011;76245;47.062;15.440;2024-02-21T12:42:19;3.40;;;1.80;;
85799;SDS011;76245;47.062;15.440;2024-02-21T12:44:45;2.22;;;1.52;;
85799;SDS011;76245;47.062;15.440;2024-02-21T12:47:12;2.83;;;1.90;;
85799;SDS011;76245;47.062;15.440;2024-02-21T12:49:38;5.00;;;1.63;;
85799;SDS011;76245;47.062;15.440;2024-02-21T12:52:04;3.22;;;1.52;;
85799;SDS011;76245;47.062;15.440;2024-02-21T12:54:29;3.00;;;1.20;;
85799;SDS011;76245;47.062;15.440;2024-02-21T12:56:56;3.63;;;1.75;;
85799;SDS011;76245;47.062;15.440;2024-02-21T12:59:21;4.30;;;1.35;;
85799;SDS011;76245;47.062;15.440;2024-02-21T13:01:48;5.78;;;2.40;;
85799;SDS011;76245;47.062;15.440;2024-02-21T13:04:13;5.20;;;1.38;;
85799;SDS011;76245;47.062;15.440;2024-02-21T13:06:38;4.65;;;1.50;;
85799;SDS011;76245;47.062;15.440;2024-02-21T13:09:04;3.85;;;1.38;;
85799;SDS011;76245;47.062;15.440;2024-02-21T13:11:33;3.20;;;1.20;;
85799;SDS011;76245;47.062;15.440;2024-02-21T13:13:59;3.67;;;1.40;;
85799;SDS011;76245;47.062;15.440;2024-02-21T13:16:25;4.82;;;1.75;;
85799;SDS011;76245;47.062;15.440;2024-02-21T13:18:51;3.03;;;1.27;;
85799;SDS011;76245;47.062;15.440;2024-02-21T13:21:17;4.10;;;1.40;;
85799;SDS011;76245;47.062;15.440;2024-02-21T13:23:42;2.08;;;1.27;;
85799;SDS011;76245;47.062;15.440;2024-02-21T13:26:09;4.35;;;1.30;;
85799;SDS011;76245;47.062;15.440;2024-02-21T13:28:35;3.20;;;0.93;;
85799;SDS011;76245;47.062;15.440;2024-02-21T13:31:00;2.35;;;1.02;;
85799;SDS011;76245;47.062;15.440;2024-02-21T13:33:26;2.45;;;1.23;;
85799;SDS011;76245;47.062;15.440;2024-02-21T13:35:53;1.98;;;1.13;;
85799;SDS011;76245;47.062;15.440;2024-02-21T13:38:19;1.75;;;1.17;;
85799;SDS011;76245;47.062;15.440;2024-02-21T13:40:44;3.17;;;1.05;;
85799;SDS011;76245;47.062;15.440;2024-02-21T13:43:10;2.88;;;1.10;;
85799;SDS011;76245;47.062;15.440;2024-02-21T13:45:36;2.75;;;1.23;;
85799;SDS011;76245;47.062;15.440;2024-02-21T13:48:01;2.00;;;1.33;;
85799;SDS011;76245;47.062;15.440;2024-02-21T13:50:29;4.25;;;1.02;;
85799;SDS011;76245;47.062;15.440;2024-02-21T13:52:57;1.63;;;1.00;;
85799;SDS011;76245;47.062;15.440;2024-02-21T13:55:23;5.60;;;1.30;;
85799;SDS011;76245;47.062;15.440;2024-02-21T13:57:51;4.75;;;1.20;;
85799;SDS011;76245;47.062;15.440;2024-02-21T14:00:18;3.20;;;1.13;;
85799;SDS011;76245;47.062;15.440;2024-02-21T14:02:45;3.30;;;1.40;;
85799;SDS011;76245;47.062;15.440;2024-02-21T14:05:11;2.20;;;0.95;;
85799;SDS011;76245;47.062;15.440;2024-02-21T14:07:38;2.63;;;1.10;;
85799;SDS011;76245;47.062;15.440;2024-02-21T14:10:04;2.95;;;1.20;;
85799;SDS011;76245;47.062;15.440;2024-02-21T14:12:29;5.60;;;1.55;;
85799;SDS011;76245;47.062;15.440;2024-02-21T14:14:55;3.65;;;1.40;;
85799;SDS011;76245;47.062;15.440;2024-02-21T14:17:23;1.67;;;1.10;;
85799;SDS011;76245;47.062;15.440;2024-02-21T14:19:49;2.97;;;1.25;;
85799;SDS011;76245;47.062;15.440;2024-02-21T14:22:17;2.65;;;1.08;;
85799;SDS011;76245;47.062;15.440;2024-02-21T14:24:42;3.75;;;1.52;;
85799;SDS011;76245;47.062;15.440;2024-02-21T14:27:08;2.45;;;1.27;;
85799;SDS011;76245;47.062;15.440;2024-02-21T14:29:34;2.75;;;0.93;;
85799;SDS011;76245;47.062;15.440;2024-02-21T14:32:00;2.58;;;1.25;;
85799;SDS011;76245;47.062;15.440;2024-02-21T14:34:25;3.10;;;1.40;;